NCAR-RAP Real-Time Weather Data

Output produced by METARs form (12 August 2020  17:38 UTC)
found at http://weather.rap.ucar.edu/surface/
 
KCNK 121655Z AUTO 12011KT 10SM CLR 27/21 A2996 RMK AO2 RAE08 SLP127 P0000 T02670211
KCNK 121555Z AUTO 17012G22KT 10SM -RA BKN110 25/21 A2999 RMK AO2 RAB42 SLP137 P0000 T02500206
KCNK 121455Z AUTO 15013KT 10SM CLR 26/22 A2999 RMK AO2 SLP139 T02560217 50001
KCNK 121355Z AUTO 00000KT 10SM CLR 24/21 A3001 RMK AO2 SLP146 T02390211 TSNO
KCNK 121255Z AUTO 09006KT 10SM SCT110 23/21 A3000 RMK AO2 SLP141 T02330206 TSNO
KCNK 121155Z AUTO 16007KT 10SM CLR 23/21 A2999 RMK AO2 SLP138 T02280206 10250 20217 51024 TSNO
KCNK 121055Z AUTO 17003KT 10SM CLR 22/19 A2997 RMK AO2 SLP131 T02170194 TSNO
KCNK 120955Z AUTO 22003KT 10SM CLR 23/20 A2995 RMK AO2 SLP123 T02330200 TSNO
KCNK 120855Z AUTO 17010KT 10SM CLR 24/20 A2991 RMK AO2 SLP110 T02390200 56026
KCNK 120755Z AUTO 15009KT 10SM CLR 23/19 A2992 RMK AO2 SLP112 T02330194
KCNK 120655Z AUTO 20007KT 10SM CLR 24/20 A2996 RMK AO2 SLP126 T02440200
KCNK 120555Z AUTO 21006KT 10SM CLR 25/20 A3000 RMK AO2 SLP139 T02500200 10317 20250 403440194 50017
KCNK 120455Z AUTO 26007KT 10SM FEW043 26/20 A3002 RMK AO2 SLP149 T02610200
KCNK 120355Z AUTO 17006KT 10SM CLR 27/19 A2996 RMK AO2 SLP128 T02670194
KCNK 120255Z AUTO 18011KT 10SM CLR 27/19 A2994 RMK AO2 SLP123 T02720194 53012
KCNK 120155Z AUTO 16010KT 10SM CLR 27/19 A2992 RMK AO2 SLP113 T02720194
KCNK 120055Z AUTO 14010KT 10SM CLR 28/20 A2990 RMK AO2 SLP110 T02830200
KCNK 112355Z AUTO 14010KT 10SM CLR 32/19 A2991 RMK AO2 SLP110 T03170194 10344 20300 58013
KCNK 112255Z AUTO 16009KT 10SM CLR 34/19 A2992 RMK AO2 SLP113 T03390189
KCNK 112155Z AUTO 15011KT 10SM CLR 34/19 A2994 RMK AO2 SLP118 T03390194
KCNK 112055Z AUTO 14009KT 10SM CLR 34/19 A2995 RMK AO2 SLP121 T03390194 56012